Aviation Digital Data Service (ADDS)

Output produced by METARs form (0921 UTC 10 December 2022)
found at http://www.aviationweather.gov/metar/data/
 
METAR text: EPWA 100900Z 01008KT 6000 -RASN BKN006 00/M01 Q1007 NOSIG
Conditions at: EPWA (WARSAW/OKECIE , PL) observed 0900 UTC 10 December 2022
Temperature: 0.0°C (32°F)
Dewpoint: -1.0°C (30°F) [RH = 93%]
Pressure (altimeter): 29.73 inches Hg (1007.0 mb)
Winds: from the N (10 degrees) at 9 MPH (8 knots; 4.1 m/s)
Visibility: 4 miles ( 6 km)
Ceiling: 600 feet AGL
Clouds: broken clouds at 600 feet AGL
Weather: -RA -SN  (light rain, light snow)

METAR text: EPWA 100830Z 01008KT 5000 -RASN BR BKN006 00/M01 Q1007 NOSIG
Conditions at: EPWA (WARSAW/OKECIE , PL) observed 0830 UTC 10 December 2022
Temperature: 0.0°C (32°F)
Dewpoint: -1.0°C (30°F) [RH = 93%]
Pressure (altimeter): 29.73 inches Hg (1007.0 mb)
Winds: from the N (10 degrees) at 9 MPH (8 knots; 4.1 m/s)
Visibility: 3 miles ( 5 km)
Ceiling: 600 feet AGL
Clouds: broken clouds at 600 feet AGL
Weather: -RA -SN BR  (light rain, light snow, mist)

Forecast for: EPWA (WARSAW/OKECIE , PL)
Text: TAF EPWA 100830Z 1009/1109 02008KT 6000 BKN010
Forecast period: 0900 to 1100 UTC 10 December 2022
Forecast type: FROM: standard forecast or significant change
Winds: from the NNE (20 degrees) at 9 MPH (8 knots; 4.1 m/s)
Visibility: 4 miles (6 km)
Ceiling: 1000 feet AGL
Clouds: broken clouds at 1000 feet AGL
Weather: no significant weather forecast for this period
Text: TEMPO 1009/1011 4000 -SNRA BR BKN006
Forecast period: 0900 to 1100 UTC 10 December 2022
Forecast type: TEMPORARY: The following changes expected for less than half the time period
Visibility: 2.49 miles (4.01 km)
Ceiling: 600 feet AGL
Clouds: broken clouds at 600 feet AGL
Weather: -SN -RA BR  (light snow, light rain, mist)
Text: BECMG 1011/1013 BKN015
Forecast period: 1100 UTC 10 December 2022 to 0900 UTC 11 December 2022
Forecast type: BECOMING: Conditions expected to become as follows by 1300 UTC 10 December 2022
Winds: from the NNE (20 degrees) at 9 MPH (8 knots; 4.1 m/s)
Visibility: 4 miles (6 km)
Ceiling: 1500 feet AGL
Clouds: broken clouds at 1500 feet AGL
Weather: no significant weather forecast for this period
Text: PROB40
Forecast period: 1100 to 2100 UTC 10 December 2022
Forecast type: TEMPORARY: The following changes expected for less than half the time period
Visibility: 2.49 miles (4.01 km)
Ceiling: 800 feet AGL
Clouds: broken clouds at 800 feet AGL
Weather: -SN BR  (light snow, mist)
Text: TEMPO 1011/1021 4000 -SN BR BKN008
Forecast period: 0600 to 0900 UTC 11 December 2022
Forecast type: TEMPORARY: The following changes expected for less than half the time period
Visibility: 1.24 miles (2.00 km)
Ceiling: 500 feet AGL
Clouds: broken clouds at 500 feet AGL
Weather: -SN BR  (light snow, mist)